• Join FlightAware (Why Join?)
  • Login
  • US Flag 
12:09AM EDT


 

Airport Tracker/Info


-or-


 

Live Flight TrackerFlight Track Log ✈ N738AT ✈ 21-Sep-2013 ✈ KBED - KHTO

Flight Track Log - Related Links

Times and Time Zones

All times are in EDT time to prevent confusion due to time zone crossing. See the N738AT flight status page for this flight to view local times or setup timezone preferences in your user account.

Time Position Orientation Groundspeed Altitude Reporting Facility
EDT Latitude Longitude Course Direction KTS MPH feet Rate Location/Type
06:07PM 42.3167 -71.3833 216° Southwest 70 81 4,500  Level KA90
06:08PM 42.3000 -71.4000 216° Southwest 67 77 4,500  Level KA90
06:09PM 42.2792 -71.4131 205° Southwest 68 78 4,600  Climbing Boston Center
06:10PM 42.2667 -71.4217 207° Southwest 68 78 4,600 -120 Level Boston Center
06:11PM 42.2542 -71.4303 207° Southwest 68 78 4,500  Descending Boston Center
06:11PM 42.2375 -71.4389 201° Southwest 64 74 4,600  Climbing Boston Center
06:13PM 42.2169 -71.4533 207° Southwest 73 84 4,600  Level Boston Center
06:14PM 42.1983 -71.4647 204° Southwest 69 79 4,600  Level Boston Center
06:15PM 42.1794 -71.4764 205° Southwest 67 77 4,600 -60 Level Boston Center
06:16PM 42.1631 -71.4850 201° Southwest 71 82 4,500 -120 Descending Boston Center
06:17PM 42.1444 -71.4992 209° Southwest 72 83 4,400  Descending Boston Center
06:18PM 42.1278 -71.5081 202° Southwest 69 79 4,500  Climbing Boston Center
06:19PM 42.1111 -71.5194 207° Southwest 66 76 4,500  Level Boston Center
06:20PM 42.0903 -71.5308 202° Southwest 67 77 4,600  Climbing Boston Center
06:21PM 42.0758 -71.5394 204° Southwest 69 79 4,600 -60 Level Boston Center
06:22PM 42.0594 -71.5536 213° Southwest 68 78 4,500 -60 Descending Boston Center
06:23PM 42.0406 -71.5653 205° Southwest 70 81 4,500  Level Boston Center
06:24PM 42.0219 -71.5767 204° Southwest 66 76 4,500  Level Boston Center
06:25PM 42.0033 -71.5797 187° South 66 76 4,500  Level Boston Center
06:26PM 41.9886 -71.5911 210° Southwest 69 79 4,600  Climbing Boston Center
06:27PM 41.9681 -71.6053 207° Southwest 71 82 4,600  Level Boston Center
06:28PM 41.9536 -71.6194 216° Southwest 69 79 4,600 -60 Level Boston Center
06:29PM 41.9347 -71.6308 204° Southwest 72 83 4,500 -60 Descending Boston Center
06:30PM 41.9183 -71.6422 207° Southwest 71 82 4,500  Level Boston Center
06:31PM 41.9017 -71.6592 217° Southwest 68 78 4,500  Level Boston Center
06:32PM 41.8850 -71.6678 201° Southwest 72 83 4,500  Level Boston Center
06:33PM 41.8686 -71.6847 218° Southwest 71 82 4,500  Level Boston Center
06:34PM 41.8497 -71.6931 198° South 70 81 4,500  Level Boston Center
06:35PM 41.8311 -71.7044 205° Southwest 68 78 4,500  Level Boston Center
06:36PM 41.8144 -71.7158 207° Southwest 69 79 4,500  Level Boston Center
06:37PM 41.7981 -71.7272 207° Southwest 70 81 4,500  Level Boston Center
06:38PM 41.7792 -71.7386 204° Southwest 69 79 4,500  Level Boston Center
06:39PM 41.7583 -71.7444 192° South 71 82 4,500  Level Boston Center
06:40PM 41.7419 -71.7528 201° Southwest 67 77 4,500  Level Boston Center
06:41PM 41.7253 -71.7642 207° Southwest 71 82 4,500  Level Boston Center
06:42PM 41.7064 -71.7700 193° South 68 78 4,600  Climbing Boston Center
06:43PM 41.6878 -71.7842 210° Southwest 72 83 4,500  Descending Boston Center
06:44PM 41.6711 -71.7953 206° Southwest 69 79 4,600  Climbing Boston Center
06:45PM 41.6547 -71.8067 207° Southwest 69 79 4,600  Level Boston Center
06:46PM 41.6358 -71.8178 204° Southwest 70 81 4,600 -60 Level Boston Center
06:47PM 41.6172 -71.8292 205° Southwest 74 85 4,500  Descending Boston Center
06:48PM 41.5986 -71.8433 210° Southwest 75 86 4,600  Climbing Boston Center
06:49PM 41.5819 -71.8572 212° Southwest 74 85 4,600  Level Boston Center
06:50PM 41.5633 -71.8714 210° Southwest 73 84 4,600 -60 Level Boston Center
06:51PM 41.5403 -71.8853 204° Southwest 76 87 4,500 -60 Descending Boston Center
06:52PM 41.5217 -71.8939 199° South 73 84 4,500 -60 Level Boston Center
06:53PM 41.5008 -71.9078 207° Southwest 75 86 4,400  Descending Boston Center
06:54PM 41.4842 -71.9164 201° Southwest 73 84 4,500  Climbing Boston Center
06:55PM 41.4656 -71.9247 199° South 76 87 4,500 -60 Level Boston Center
06:56PM 41.4469 -71.9361 205° Southwest 75 86 4,400  Descending Boston Center
06:57PM 41.4261 -71.9528 211° Southwest 74 85 4,500  Climbing Boston Center
06:58PM 41.4075 -71.9669 210° Southwest 73 84 4,500  Level Boston Center
06:59PM 41.3908 -71.9808 212° Southwest 73 84 4,600  Climbing Boston Center
07:00PM 41.3719 -71.9919 204° Southwest 73 84 4,500 -60 Descending Boston Center
07:01PM 41.3533 -72.0003 199° South 73 84 4,500  Level Boston Center
07:02PM 41.3347 -72.0144 210° Southwest 73 84 4,500  Level Boston Center
07:04PM 41.3083 -72.0309 205° Southwest  Level FlightAware Approximate
07:11PM 41.1729 -72.1151 205° Southwest  Level FlightAware Approximate
07:12PM 41.1536 -72.1271 205° Southwest  Level FlightAware Approximate
07:13PM 41.1342 -72.1391 205° Southwest  Level FlightAware Approximate
07:14PM 41.1148 -72.1506 194° South  Level FlightAware Approximate
07:15PM 41.0941 -72.1575 194° South  Level FlightAware Approximate
07:16PM 41.0733 -72.1644 194° South  Level FlightAware Approximate
07:17PM 41.0537 -72.1753 207° Southwest  Level FlightAware Approximate
07:18PM 41.0347 -72.1880 207° Southwest  Level FlightAware Approximate
07:19PM 41.0156 -72.2008 210° Southwest  Level FlightAware Approximate
07:20PM 40.9971 -72.2147 210° Southwest  Level FlightAware Approximate
07:21PM 40.9785 -72.2287 210° Southwest  Level FlightAware Approximate
07:22PM 40.9599 -72.2426 210° Southwest  Level FlightAware Approximate
07:23PM 40.9500 -72.2500 210° Southwest  Level FlightAware Approximate
07:24PM 40.9594 -72.2517 210° Southwest  Level Estimated
07:25PM 40.9594 -72.2517 210° Southwest  Level Estimated